sensor_id;sensor_type;location;lat;lon;timestamp;P1;durP1;ratioP1;P2;durP2;ratioP2
78156;SDS011;67400;49.360;8.266;2023-02-22T00:00:49;5.32;;;2.88;;
78156;SDS011;67400;49.360;8.266;2023-02-22T00:02:10;6.60;;;3.17;;
78156;SDS011;67400;49.360;8.266;2023-02-22T00:03:31;7.70;;;3.17;;
78156;SDS011;67400;49.360;8.266;2023-02-22T00:04:52;8.13;;;3.35;;
78156;SDS011;67400;49.360;8.266;2023-02-22T00:06:14;8.40;;;3.78;;
78156;SDS011;67400;49.360;8.266;2023-02-22T00:07:34;9.30;;;4.70;;
78156;SDS011;67400;49.360;8.266;2023-02-22T00:08:54;15.65;;;5.93;;
78156;SDS011;67400;49.360;8.266;2023-02-22T00:10:14;27.38;;;9.95;;
78156;SDS011;67400;49.360;8.266;2023-02-22T00:11:37;29.30;;;10.43;;
78156;SDS011;67400;49.360;8.266;2023-02-22T00:12:57;59.75;;;20.23;;
78156;SDS011;67400;49.360;8.266;2023-02-22T00:14:17;46.95;;;16.35;;
78156;SDS011;67400;49.360;8.266;2023-02-22T00:15:40;21.65;;;7.85;;
78156;SDS011;67400;49.360;8.266;2023-02-22T00:16:59;12.43;;;5.15;;
78156;SDS011;67400;49.360;8.266;2023-02-22T00:18:20;12.32;;;5.22;;
78156;SDS011;67400;49.360;8.266;2023-02-22T00:19:39;10.88;;;4.90;;
78156;SDS011;67400;49.360;8.266;2023-02-22T00:20:59;10.48;;;5.00;;
78156;SDS011;67400;49.360;8.266;2023-02-22T00:22:19;10.35;;;4.72;;
78156;SDS011;67400;49.360;8.266;2023-02-22T00:23:40;13.05;;;5.38;;
78156;SDS011;67400;49.360;8.266;2023-02-22T00:25:03;10.02;;;5.03;;
78156;SDS011;67400;49.360;8.266;2023-02-22T00:26:23;11.40;;;5.20;;
78156;SDS011;67400;49.360;8.266;2023-02-22T00:27:44;11.10;;;5.75;;
78156;SDS011;67400;49.360;8.266;2023-02-22T00:29:05;8.93;;;4.20;;
78156;SDS011;67400;49.360;8.266;2023-02-22T00:30:28;13.30;;;5.80;;
78156;SDS011;67400;49.360;8.266;2023-02-22T00:31:49;11.38;;;4.97;;
78156;SDS011;67400;49.360;8.266;2023-02-22T00:33:09;10.75;;;4.80;;
78156;SDS011;67400;49.360;8.266;2023-02-22T00:34:29;10.15;;;4.38;;
78156;SDS011;67400;49.360;8.266;2023-02-22T00:35:49;10.02;;;4.60;;
78156;SDS011;67400;49.360;8.266;2023-02-22T00:37:09;13.70;;;5.50;;
78156;SDS011;67400;49.360;8.266;2023-02-22T00:38:29;16.05;;;5.45;;
78156;SDS011;67400;49.360;8.266;2023-02-22T00:39:49;10.95;;;4.93;;
78156;SDS011;67400;49.360;8.266;2023-02-22T00:41:09;9.05;;;4.65;;
78156;SDS011;67400;49.360;8.266;2023-02-22T00:42:30;9.50;;;3.78;;
78156;SDS011;67400;49.360;8.266;2023-02-22T00:43:49;9.68;;;4.05;;
78156;SDS011;67400;49.360;8.266;2023-02-22T00:45:12;7.90;;;3.97;;
78156;SDS011;67400;49.360;8.266;2023-02-22T00:46:32;11.98;;;4.18;;
78156;SDS011;67400;49.360;8.266;2023-02-22T00:47:52;7.68;;;3.63;;
78156;SDS011;67400;49.360;8.266;2023-02-22T00:49:15;7.10;;;3.50;;
78156;SDS011;67400;49.360;8.266;2023-02-22T00:50:35;8.25;;;4.13;;
78156;SDS011;67400;49.360;8.266;2023-02-22T00:51:54;8.32;;;4.30;;
78156;SDS011;67400;49.360;8.266;2023-02-22T00:53:14;9.68;;;4.85;;
78156;SDS011;67400;49.360;8.266;2023-02-22T00:54:34;9.80;;;4.40;;
78156;SDS011;67400;49.360;8.266;2023-02-22T00:55:54;8.52;;;4.07;;
78156;SDS011;67400;49.360;8.266;2023-02-22T00:57:13;6.43;;;3.47;;
78156;SDS011;67400;49.360;8.266;2023-02-22T00:58:33;7.53;;;4.00;;
78156;SDS011;67400;49.360;8.266;2023-02-22T00:59:53;7.90;;;3.88;;
78156;SDS011;67400;49.360;8.266;2023-02-22T01:01:12;7.00;;;3.80;;
78156;SDS011;67400;49.360;8.266;2023-02-22T01:02:32;7.30;;;4.22;;
78156;SDS011;67400;49.360;8.266;2023-02-22T01:03:52;6.13;;;3.50;;
78156;SDS011;67400;49.360;8.266;2023-02-22T01:05:12;6.20;;;3.70;;
78156;SDS011;67400;49.360;8.266;2023-02-22T01:06:31;7.43;;;3.30;;
78156;SDS011;67400;49.360;8.266;2023-02-22T01:07:52;9.10;;;3.38;;
78156;SDS011;67400;49.360;8.266;2023-02-22T01:09:13;7.88;;;3.65;;
78156;SDS011;67400;49.360;8.266;2023-02-22T01:10:33;6.05;;;3.38;;
78156;SDS011;67400;49.360;8.266;2023-02-22T01:11:53;7.65;;;3.35;;
78156;SDS011;67400;49.360;8.266;2023-02-22T01:13:13;6.22;;;3.17;;
78156;SDS011;67400;49.360;8.266;2023-02-22T01:14:32;8.18;;;3.60;;
78156;SDS011;67400;49.360;8.266;2023-02-22T01:15:52;7.97;;;3.65;;
78156;SDS011;67400;49.360;8.266;2023-02-22T01:17:14;9.77;;;3.97;;
78156;SDS011;67400;49.360;8.266;2023-02-22T01:18:34;6.78;;;3.42;;
78156;SDS011;67400;49.360;8.266;2023-02-22T01:19:54;6.28;;;3.63;;
78156;SDS011;67400;49.360;8.266;2023-02-22T01:21:13;5.68;;;3.33;;
78156;SDS011;67400;49.360;8.266;2023-02-22T01:22:33;4.68;;;3.10;;
78156;SDS011;67400;49.360;8.266;2023-02-22T01:23:53;6.25;;;3.20;;
78156;SDS011;67400;49.360;8.266;2023-02-22T01:25:16;9.05;;;3.40;;
78156;SDS011;67400;49.360;8.266;2023-02-22T01:26:37;7.10;;;3.20;;
78156;SDS011;67400;49.360;8.266;2023-02-22T01:27:57;5.32;;;3.03;;
78156;SDS011;67400;49.360;8.266;2023-02-22T01:29:18;7.25;;;3.03;;
78156;SDS011;67400;49.360;8.266;2023-02-22T01:30:39;6.78;;;3.20;;
78156;SDS011;67400;49.360;8.266;2023-02-22T01:31:59;5.07;;;3.13;;
78156;SDS011;67400;49.360;8.266;2023-02-22T01:33:20;5.75;;;3.03;;
78156;SDS011;67400;49.360;8.266;2023-02-22T01:34:39;9.40;;;3.20;;
78156;SDS011;67400;49.360;8.266;2023-02-22T01:36:02;4.00;;;2.50;;
78156;SDS011;67400;49.360;8.266;2023-02-22T01:37:21;4.43;;;2.92;;
78156;SDS011;67400;49.360;8.266;2023-02-22T01:38:41;5.30;;;2.90;;
78156;SDS011;67400;49.360;8.266;2023-02-22T01:40:03;4.03;;;2.55;;
78156;SDS011;67400;49.360;8.266;2023-02-22T01:41:25;4.70;;;2.58;;
78156;SDS011;67400;49.360;8.266;2023-02-22T01:42:46;6.90;;;3.00;;
78156;SDS011;67400;49.360;8.266;2023-02-22T01:44:16;4.07;;;2.63;;
78156;SDS011;67400;49.360;8.266;2023-02-22T01:45:43;7.38;;;3.15;;
78156;SDS011;67400;49.360;8.266;2023-02-22T01:47:04;4.80;;;2.60;;
78156;SDS011;67400;49.360;8.266;2023-02-22T01:48:45;6.22;;;2.83;;
78156;SDS011;67400;49.360;8.266;2023-02-22T01:50:06;6.25;;;3.05;;
78156;SDS011;67400;49.360;8.266;2023-02-22T01:51:29;4.75;;;2.90;;
78156;SDS011;67400;49.360;8.266;2023-02-22T01:52:49;4.85;;;2.85;;
78156;SDS011;67400;49.360;8.266;2023-02-22T01:54:10;5.53;;;2.90;;
78156;SDS011;67400;49.360;8.266;2023-02-22T01:55:32;5.95;;;3.20;;
78156;SDS011;67400;49.360;8.266;2023-02-22T01:56:57;7.22;;;3.03;;
78156;SDS011;67400;49.360;8.266;2023-02-22T01:58:18;5.93;;;3.00;;
78156;SDS011;67400;49.360;8.266;2023-02-22T01:59:42;8.45;;;3.15;;
78156;SDS011;67400;49.360;8.266;2023-02-22T02:01:04;6.95;;;3.20;;
78156;SDS011;67400;49.360;8.266;2023-02-22T02:02:25;5.18;;;2.78;;
78156;SDS011;67400;49.360;8.266;2023-02-22T02:03:46;4.65;;;2.97;;
78156;SDS011;67400;49.360;8.266;2023-02-22T02:05:08;5.15;;;2.53;;
78156;SDS011;67400;49.360;8.266;2023-02-22T02:06:30;6.80;;;3.10;;
78156;SDS011;67400;49.360;8.266;2023-02-22T02:07:52;7.22;;;3.10;;
78156;SDS011;67400;49.360;8.266;2023-02-22T02:09:24;5.43;;;2.90;;
78156;SDS011;67400;49.360;8.266;2023-02-22T02:10:50;6.65;;;3.22;;
78156;SDS011;67400;49.360;8.266;2023-02-22T02:12:10;5.35;;;2.75;;
78156;SDS011;67400;49.360;8.266;2023-02-22T02:13:30;7.03;;;3.20;;
78156;SDS011;67400;49.360;8.266;2023-02-22T02:14:50;5.40;;;2.88;;
78156;SDS011;67400;49.360;8.266;2023-02-22T02:16:12;9.27;;;3.58;;
78156;SDS011;67400;49.360;8.266;2023-02-22T02:17:32;4.30;;;2.85;;
78156;SDS011;67400;49.360;8.266;2023-02-22T02:18:54;8.80;;;3.47;;
78156;SDS011;67400;49.360;8.266;2023-02-22T02:20:30;7.80;;;3.15;;
78156;SDS011;67400;49.360;8.266;2023-02-22T02:23:37;8.10;;;3.60;;
78156;SDS011;67400;49.360;8.266;2023-02-22T02:25:20;8.65;;;4.22;;
78156;SDS011;67400;49.360;8.266;2023-02-22T02:32:59;8.30;;;4.25;;
78156;SDS011;67400;49.360;8.266;2023-02-22T02:34:56;8.98;;;4.25;;
78156;SDS011;67400;49.360;8.266;2023-02-22T02:37:33;9.60;;;4.18;;
78156;SDS011;67400;49.360;8.266;2023-02-22T02:38:57;10.70;;;4.10;;
78156;SDS011;67400;49.360;8.266;2023-02-22T02:40:23;9.35;;;4.20;;
78156;SDS011;67400;49.360;8.266;2023-02-22T02:41:48;9.30;;;3.72;;
78156;SDS011;67400;49.360;8.266;2023-02-22T02:44:45;8.77;;;4.10;;
78156;SDS011;67400;49.360;8.266;2023-02-22T02:47:28;8.27;;;4.05;;
78156;SDS011;67400;49.360;8.266;2023-02-22T02:48:50;7.47;;;4.22;;
78156;SDS011;67400;49.360;8.266;2023-02-22T02:50:13;11.50;;;4.00;;
78156;SDS011;67400;49.360;8.266;2023-02-22T02:51:35;8.73;;;4.30;;
78156;SDS011;67400;49.360;8.266;2023-02-22T02:52:58;10.00;;;4.03;;
78156;SDS011;67400;49.360;8.266;2023-02-22T02:54:19;5.78;;;3.58;;
78156;SDS011;67400;49.360;8.266;2023-02-22T02:55:39;10.38;;;4.22;;
78156;SDS011;67400;49.360;8.266;2023-02-22T02:56:59;6.82;;;3.80;;
78156;SDS011;67400;49.360;8.266;2023-02-22T02:58:20;7.03;;;3.67;;
78156;SDS011;67400;49.360;8.266;2023-02-22T02:59:40;7.97;;;3.90;;
78156;SDS011;67400;49.360;8.266;2023-02-22T03:01:00;8.20;;;3.85;;
78156;SDS011;67400;49.360;8.266;2023-02-22T03:06:01;11.00;;;4.93;;
78156;SDS011;67400;49.360;8.266;2023-02-22T03:08:58;10.13;;;4.00;;
78156;SDS011;67400;49.360;8.266;2023-02-22T03:12:06;6.38;;;4.15;;
78156;SDS011;67400;49.360;8.266;2023-02-22T03:15:04;9.15;;;4.43;;
78156;SDS011;67400;49.360;8.266;2023-02-22T03:18:07;8.10;;;4.15;;
78156;SDS011;67400;49.360;8.266;2023-02-22T03:20:52;11.20;;;4.32;;
78156;SDS011;67400;49.360;8.266;2023-02-22T03:22:36;6.80;;;3.90;;
78156;SDS011;67400;49.360;8.266;2023-02-22T03:24:05;7.40;;;3.85;;
78156;SDS011;67400;49.360;8.266;2023-02-22T03:25:47;7.05;;;3.63;;
78156;SDS011;67400;49.360;8.266;2023-02-22T03:27:05;9.73;;;4.07;;
78156;SDS011;67400;49.360;8.266;2023-02-22T03:28:28;6.55;;;3.60;;
78156;SDS011;67400;49.360;8.266;2023-02-22T03:29:50;8.52;;;3.58;;
78156;SDS011;67400;49.360;8.266;2023-02-22T03:31:14;7.95;;;3.53;;
78156;SDS011;67400;49.360;8.266;2023-02-22T03:32:36;8.52;;;3.72;;
78156;SDS011;67400;49.360;8.266;2023-02-22T03:33:59;5.80;;;3.40;;
78156;SDS011;67400;49.360;8.266;2023-02-22T03:35:26;10.15;;;3.50;;
78156;SDS011;67400;49.360;8.266;2023-02-22T03:37:08;7.07;;;3.40;;
78156;SDS011;67400;49.360;8.266;2023-02-22T03:38:35;10.50;;;3.40;;
78156;SDS011;67400;49.360;8.266;2023-02-22T03:39:57;7.18;;;3.85;;
78156;SDS011;67400;49.360;8.266;2023-02-22T03:41:20;9.88;;;3.85;;
78156;SDS011;67400;49.360;8.266;2023-02-22T03:42:47;7.28;;;3.70;;
78156;SDS011;67400;49.360;8.266;2023-02-22T03:44:10;7.75;;;4.13;;
78156;SDS011;67400;49.360;8.266;2023-02-22T03:45:30;7.70;;;3.58;;
78156;SDS011;67400;49.360;8.266;2023-02-22T03:46:51;9.68;;;3.63;;
78156;SDS011;67400;49.360;8.266;2023-02-22T03:48:16;8.82;;;3.53;;
78156;SDS011;67400;49.360;8.266;2023-02-22T03:49:41;7.75;;;3.58;;
78156;SDS011;67400;49.360;8.266;2023-02-22T03:51:02;7.93;;;3.67;;
78156;SDS011;67400;49.360;8.266;2023-02-22T03:52:23;7.10;;;3.67;;
78156;SDS011;67400;49.360;8.266;2023-02-22T03:53:43;9.70;;;4.50;;
78156;SDS011;67400;49.360;8.266;2023-02-22T03:55:03;8.57;;;4.13;;
78156;SDS011;67400;49.360;8.266;2023-02-22T03:56:32;8.35;;;3.95;;
78156;SDS011;67400;49.360;8.266;2023-02-22T03:57:55;7.93;;;3.80;;
78156;SDS011;67400;49.360;8.266;2023-02-22T03:59:16;9.10;;;4.20;;
78156;SDS011;67400;49.360;8.266;2023-02-22T04:00:36;8.43;;;3.63;;
78156;SDS011;67400;49.360;8.266;2023-02-22T04:01:59;9.60;;;4.38;;
78156;SDS011;67400;49.360;8.266;2023-02-22T04:03:20;5.78;;;3.65;;
78156;SDS011;67400;49.360;8.266;2023-02-22T04:04:40;8.18;;;3.58;;
78156;SDS011;67400;49.360;8.266;2023-02-22T04:06:00;8.35;;;3.88;;
78156;SDS011;67400;49.360;8.266;2023-02-22T04:07:21;9.32;;;4.00;;
78156;SDS011;67400;49.360;8.266;2023-02-22T04:08:42;7.80;;;3.25;;
78156;SDS011;67400;49.360;8.266;2023-02-22T04:10:02;6.75;;;3.65;;
78156;SDS011;67400;49.360;8.266;2023-02-22T04:11:26;6.32;;;3.55;;
78156;SDS011;67400;49.360;8.266;2023-02-22T04:12:46;6.43;;;3.58;;
78156;SDS011;67400;49.360;8.266;2023-02-22T04:14:06;5.90;;;3.70;;
78156;SDS011;67400;49.360;8.266;2023-02-22T04:15:26;11.38;;;3.67;;
78156;SDS011;67400;49.360;8.266;2023-02-22T04:16:53;6.22;;;3.65;;
78156;SDS011;67400;49.360;8.266;2023-02-22T04:18:13;5.70;;;3.35;;
78156;SDS011;67400;49.360;8.266;2023-02-22T04:19:33;7.82;;;3.92;;
78156;SDS011;67400;49.360;8.266;2023-02-22T04:20:53;7.80;;;3.55;;
78156;SDS011;67400;49.360;8.266;2023-02-22T04:22:27;5.03;;;3.47;;
78156;SDS011;67400;49.360;8.266;2023-02-22T04:23:47;5.35;;;3.42;;
78156;SDS011;67400;49.360;8.266;2023-02-22T04:25:06;9.13;;;3.47;;
78156;SDS011;67400;49.360;8.266;2023-02-22T04:26:27;7.75;;;4.03;;
78156;SDS011;67400;49.360;8.266;2023-02-22T04:27:51;7.63;;;3.80;;
78156;SDS011;67400;49.360;8.266;2023-02-22T04:29:15;9.73;;;4.13;;
78156;SDS011;67400;49.360;8.266;2023-02-22T04:30:36;7.25;;;3.70;;
78156;SDS011;67400;49.360;8.266;2023-02-22T04:31:59;8.10;;;3.83;;
78156;SDS011;67400;49.360;8.266;2023-02-22T04:33:19;8.77;;;3.80;;
78156;SDS011;67400;49.360;8.266;2023-02-22T04:34:39;9.43;;;3.95;;
78156;SDS011;67400;49.360;8.266;2023-02-22T04:35:59;10.43;;;4.35;;
78156;SDS011;67400;49.360;8.266;2023-02-22T04:37:19;9.52;;;4.50;;
78156;SDS011;67400;49.360;8.266;2023-02-22T04:38:38;6.63;;;3.50;;
78156;SDS011;67400;49.360;8.266;2023-02-22T04:39:59;7.45;;;3.85;;
78156;SDS011;67400;49.360;8.266;2023-02-22T04:41:22;5.97;;;3.70;;
78156;SDS011;67400;49.360;8.266;2023-02-22T04:42:43;9.88;;;4.35;;
78156;SDS011;67400;49.360;8.266;2023-02-22T04:44:03;8.93;;;4.20;;
78156;SDS011;67400;49.360;8.266;2023-02-22T04:45:24;10.05;;;3.95;;
78156;SDS011;67400;49.360;8.266;2023-02-22T04:46:43;9.35;;;4.30;;
78156;SDS011;67400;49.360;8.266;2023-02-22T04:48:05;7.80;;;3.85;;
78156;SDS011;67400;49.360;8.266;2023-02-22T04:49:25;7.18;;;3.95;;
78156;SDS011;67400;49.360;8.266;2023-02-22T04:50:49;8.75;;;4.38;;
78156;SDS011;67400;49.360;8.266;2023-02-22T04:52:10;12.05;;;4.38;;
78156;SDS011;67400;49.360;8.266;2023-02-22T04:53:31;8.27;;;4.78;;
78156;SDS011;67400;49.360;8.266;2023-02-22T04:54:51;7.47;;;4.40;;
78156;SDS011;67400;49.360;8.266;2023-02-22T04:56:10;7.78;;;4.00;;
78156;SDS011;67400;49.360;8.266;2023-02-22T04:57:30;9.02;;;4.45;;
78156;SDS011;67400;49.360;8.266;2023-02-22T04:58:50;11.70;;;3.95;;
78156;SDS011;67400;49.360;8.266;2023-02-22T05:00:10;9.68;;;4.03;;
78156;SDS011;67400;49.360;8.266;2023-02-22T05:01:30;7.25;;;3.95;;
78156;SDS011;67400;49.360;8.266;2023-02-22T05:02:51;5.68;;;3.90;;
78156;SDS011;67400;49.360;8.266;2023-02-22T05:04:10;9.07;;;3.80;;
78156;SDS011;67400;49.360;8.266;2023-02-22T05:05:29;9.48;;;5.20;;
78156;SDS011;67400;49.360;8.266;2023-02-22T05:06:49;9.68;;;4.43;;
78156;SDS011;67400;49.360;8.266;2023-02-22T05:08:08;7.75;;;4.07;;
78156;SDS011;67400;49.360;8.266;2023-02-22T05:09:28;6.95;;;4.18;;
78156;SDS011;67400;49.360;8.266;2023-02-22T05:10:48;6.78;;;3.83;;
78156;SDS011;67400;49.360;8.266;2023-02-22T05:12:07;10.88;;;4.28;;
78156;SDS011;67400;49.360;8.266;2023-02-22T05:13:27;6.80;;;4.32;;
78156;SDS011;67400;49.360;8.266;2023-02-22T05:14:46;9.07;;;3.70;;
78156;SDS011;67400;49.360;8.266;2023-02-22T05:16:06;10.52;;;4.32;;
78156;SDS011;67400;49.360;8.266;2023-02-22T05:17:26;13.23;;;3.75;;
78156;SDS011;67400;49.360;8.266;2023-02-22T05:18:45;8.48;;;3.78;;
78156;SDS011;67400;49.360;8.266;2023-02-22T05:20:05;8.70;;;3.70;;
78156;SDS011;67400;49.360;8.266;2023-02-22T05:21:26;8.00;;;3.83;;
78156;SDS011;67400;49.360;8.266;2023-02-22T05:22:45;8.30;;;4.00;;
78156;SDS011;67400;49.360;8.266;2023-02-22T05:24:05;9.75;;;4.10;;
78156;SDS011;67400;49.360;8.266;2023-02-22T05:25:25;11.00;;;4.38;;
78156;SDS011;67400;49.360;8.266;2023-02-22T05:26:45;9.98;;;4.43;;
78156;SDS011;67400;49.360;8.266;2023-02-22T05:28:07;6.20;;;3.90;;
78156;SDS011;67400;49.360;8.266;2023-02-22T05:29:29;8.20;;;4.30;;
78156;SDS011;67400;49.360;8.266;2023-02-22T05:30:48;8.45;;;3.88;;
78156;SDS011;67400;49.360;8.266;2023-02-22T05:32:07;7.97;;;3.70;;
78156;SDS011;67400;49.360;8.266;2023-02-22T05:33:27;9.25;;;4.45;;
78156;SDS011;67400;49.360;8.266;2023-02-22T05:34:47;9.73;;;4.63;;
78156;SDS011;67400;49.360;8.266;2023-02-22T05:36:07;8.02;;;3.90;;
78156;SDS011;67400;49.360;8.266;2023-02-22T05:37:27;7.78;;;3.88;;
78156;SDS011;67400;49.360;8.266;2023-02-22T05:38:46;10.10;;;4.45;;
78156;SDS011;67400;49.360;8.266;2023-02-22T05:40:06;9.18;;;4.32;;
78156;SDS011;67400;49.360;8.266;2023-02-22T05:41:26;7.35;;;4.53;;
78156;SDS011;67400;49.360;8.266;2023-02-22T05:42:47;9.00;;;4.22;;
78156;SDS011;67400;49.360;8.266;2023-02-22T05:44:06;10.27;;;4.55;;
78156;SDS011;67400;49.360;8.266;2023-02-22T05:45:26;8.90;;;4.18;;
78156;SDS011;67400;49.360;8.266;2023-02-22T05:46:46;9.52;;;4.20;;
78156;SDS011;67400;49.360;8.266;2023-02-22T05:48:06;7.72;;;4.25;;
78156;SDS011;67400;49.360;8.266;2023-02-22T05:49:25;8.52;;;4.38;;
78156;SDS011;67400;49.360;8.266;2023-02-22T05:50:45;9.60;;;4.05;;
78156;SDS011;67400;49.360;8.266;2023-02-22T05:52:06;9.77;;;3.88;;
78156;SDS011;67400;49.360;8.266;2023-02-22T05:53:26;9.65;;;4.90;;
78156;SDS011;67400;49.360;8.266;2023-02-22T05:54:45;9.20;;;4.38;;
78156;SDS011;67400;49.360;8.266;2023-02-22T05:56:05;10.85;;;4.25;;
78156;SDS011;67400;49.360;8.266;2023-02-22T05:57:24;9.50;;;4.32;;
78156;SDS011;67400;49.360;8.266;2023-02-22T05:58:44;9.40;;;4.70;;
78156;SDS011;67400;49.360;8.266;2023-02-22T06:00:04;8.38;;;4.55;;
78156;SDS011;67400;49.360;8.266;2023-02-22T06:01:31;8.65;;;4.60;;
78156;SDS011;67400;49.360;8.266;2023-02-22T06:02:55;9.13;;;4.97;;
78156;SDS011;67400;49.360;8.266;2023-02-22T06:04:14;8.02;;;4.05;;
78156;SDS011;67400;49.360;8.266;2023-02-22T06:05:35;9.30;;;4.97;;
78156;SDS011;67400;49.360;8.266;2023-02-22T06:06:54;9.98;;;4.75;;
78156;SDS011;67400;49.360;8.266;2023-02-22T06:08:14;9.63;;;4.38;;
78156;SDS011;67400;49.360;8.266;2023-02-22T06:09:35;11.13;;;4.57;;
78156;SDS011;67400;49.360;8.266;2023-02-22T06:10:55;8.57;;;4.88;;
78156;SDS011;67400;49.360;8.266;2023-02-22T06:12:14;8.52;;;4.28;;
78156;SDS011;67400;49.360;8.266;2023-02-22T06:13:34;10.25;;;5.32;;
78156;SDS011;67400;49.360;8.266;2023-02-22T06:14:54;9.27;;;4.75;;
78156;SDS011;67400;49.360;8.266;2023-02-22T06:16:14;9.88;;;5.45;;
78156;SDS011;67400;49.360;8.266;2023-02-22T06:17:34;11.15;;;5.05;;
78156;SDS011;67400;49.360;8.266;2023-02-22T06:18:54;10.48;;;5.18;;
78156;SDS011;67400;49.360;8.266;2023-02-22T06:20:15;11.23;;;5.13;;
78156;SDS011;67400;49.360;8.266;2023-02-22T06:21:35;9.48;;;5.07;;
78156;SDS011;67400;49.360;8.266;2023-02-22T06:22:55;10.05;;;4.78;;
78156;SDS011;67400;49.360;8.266;2023-02-22T06:24:16;14.27;;;5.00;;
78156;SDS011;67400;49.360;8.266;2023-02-22T06:25:36;10.73;;;5.35;;
78156;SDS011;67400;49.360;8.266;2023-02-22T06:26:57;9.23;;;4.57;;
78156;SDS011;67400;49.360;8.266;2023-02-22T06:28:17;15.73;;;6.80;;
78156;SDS011;67400;49.360;8.266;2023-02-22T06:29:36;10.15;;;5.78;;
78156;SDS011;67400;49.360;8.266;2023-02-22T06:30:56;11.63;;;5.88;;
78156;SDS011;67400;49.360;8.266;2023-02-22T06:32:16;14.18;;;6.40;;
78156;SDS011;67400;49.360;8.266;2023-02-22T06:33:35;11.95;;;5.93;;
78156;SDS011;67400;49.360;8.266;2023-02-22T06:34:55;12.65;;;5.55;;
78156;SDS011;67400;49.360;8.266;2023-02-22T06:36:14;10.35;;;5.70;;
78156;SDS011;67400;49.360;8.266;2023-02-22T06:37:34;9.32;;;5.35;;
78156;SDS011;67400;49.360;8.266;2023-02-22T06:38:56;11.57;;;5.80;;
78156;SDS011;67400;49.360;8.266;2023-02-22T06:40:16;14.23;;;6.32;;
78156;SDS011;67400;49.360;8.266;2023-02-22T06:41:36;11.30;;;6.03;;
78156;SDS011;67400;49.360;8.266;2023-02-22T06:42:56;16.60;;;7.03;;
78156;SDS011;67400;49.360;8.266;2023-02-22T06:44:17;21.13;;;9.40;;
78156;SDS011;67400;49.360;8.266;2023-02-22T06:45:37;18.65;;;8.38;;
78156;SDS011;67400;49.360;8.266;2023-02-22T06:46:56;17.90;;;8.55;;
78156;SDS011;67400;49.360;8.266;2023-02-22T06:48:17;18.48;;;9.55;;
78156;SDS011;67400;49.360;8.266;2023-02-22T06:49:36;18.90;;;8.35;;
78156;SDS011;67400;49.360;8.266;2023-02-22T06:50:55;16.85;;;7.18;;
78156;SDS011;67400;49.360;8.266;2023-02-22T06:52:15;19.83;;;8.38;;
78156;SDS011;67400;49.360;8.266;2023-02-22T06:53:35;17.63;;;7.43;;
78156;SDS011;67400;49.360;8.266;2023-02-22T06:54:54;16.77;;;7.05;;
78156;SDS011;67400;49.360;8.266;2023-02-22T06:56:14;16.42;;;6.78;;
78156;SDS011;67400;49.360;8.266;2023-02-22T06:57:33;17.60;;;7.13;;
78156;SDS011;67400;49.360;8.266;2023-02-22T06:58:53;18.52;;;6.60;;
78156;SDS011;67400;49.360;8.266;2023-02-22T07:00:14;14.75;;;6.85;;
78156;SDS011;67400;49.360;8.266;2023-02-22T07:01:33;16.27;;;7.55;;
78156;SDS011;67400;49.360;8.266;2023-02-22T07:02:53;12.40;;;7.15;;
78156;SDS011;67400;49.360;8.266;2023-02-22T07:04:13;12.00;;;6.05;;
78156;SDS011;67400;49.360;8.266;2023-02-22T07:05:33;10.93;;;5.80;;
78156;SDS011;67400;49.360;8.266;2023-02-22T07:06:53;11.32;;;6.25;;
78156;SDS011;67400;49.360;8.266;2023-02-22T07:08:12;13.93;;;6.32;;
78156;SDS011;67400;49.360;8.266;2023-02-22T07:09:32;18.00;;;8.23;;
78156;SDS011;67400;49.360;8.266;2023-02-22T07:10:51;19.90;;;8.90;;
78156;SDS011;67400;49.360;8.266;2023-02-22T07:12:11;22.20;;;9.32;;
78156;SDS011;67400;49.360;8.266;2023-02-22T07:13:31;22.40;;;9.82;;
78156;SDS011;67400;49.360;8.266;2023-02-22T07:14:53;19.20;;;8.68;;
78156;SDS011;67400;49.360;8.266;2023-02-22T07:16:13;18.17;;;8.25;;
78156;SDS011;67400;49.360;8.266;2023-02-22T07:17:36;16.30;;;7.70;;
78156;SDS011;67400;49.360;8.266;2023-02-22T07:18:58;16.10;;;7.65;;
78156;SDS011;67400;49.360;8.266;2023-02-22T07:20:21;18.15;;;8.07;;
78156;SDS011;67400;49.360;8.266;2023-02-22T07:21:40;19.90;;;10.00;;
78156;SDS011;67400;49.360;8.266;2023-02-22T07:23:00;22.27;;;10.10;;
78156;SDS011;67400;49.360;8.266;2023-02-22T07:24:19;25.35;;;9.88;;
78156;SDS011;67400;49.360;8.266;2023-02-22T07:25:39;21.30;;;9.00;;
78156;SDS011;67400;49.360;8.266;2023-02-22T07:26:59;20.05;;;8.82;;
78156;SDS011;67400;49.360;8.266;2023-02-22T07:28:19;18.95;;;9.68;;
78156;SDS011;67400;49.360;8.266;2023-02-22T07:29:40;23.17;;;8.60;;
78156;SDS011;67400;49.360;8.266;2023-02-22T07:31:00;19.90;;;9.05;;
78156;SDS011;67400;49.360;8.266;2023-02-22T07:32:20;19.55;;;8.20;;
78156;SDS011;67400;49.360;8.266;2023-02-22T07:33:39;16.60;;;8.35;;
78156;SDS011;67400;49.360;8.266;2023-02-22T07:34:59;18.85;;;7.68;;
78156;SDS011;67400;49.360;8.266;2023-02-22T07:36:20;18.75;;;7.35;;
78156;SDS011;67400;49.360;8.266;2023-02-22T07:37:40;19.55;;;7.60;;
78156;SDS011;67400;49.360;8.266;2023-02-22T07:39:00;13.07;;;6.68;;
78156;SDS011;67400;49.360;8.266;2023-02-22T07:40:20;16.15;;;6.53;;
78156;SDS011;67400;49.360;8.266;2023-02-22T07:41:40;16.38;;;6.75;;
78156;SDS011;67400;49.360;8.266;2023-02-22T07:44:33;11.65;;;7.53;;
78156;SDS011;67400;49.360;8.266;2023-02-22T07:45:54;17.45;;;7.07;;
78156;SDS011;67400;49.360;8.266;2023-02-22T07:47:14;14.68;;;7.13;;
78156;SDS011;67400;49.360;8.266;2023-02-22T07:48:33;14.68;;;6.95;;
78156;SDS011;67400;49.360;8.266;2023-02-22T07:49:53;17.13;;;7.78;;
78156;SDS011;67400;49.360;8.266;2023-02-22T07:51:14;14.68;;;7.95;;
78156;SDS011;67400;49.360;8.266;2023-02-22T07:52:33;13.15;;;7.68;;
78156;SDS011;67400;49.360;8.266;2023-02-22T07:53:54;16.25;;;9.07;;
78156;SDS011;67400;49.360;8.266;2023-02-22T07:55:14;21.40;;;9.75;;
78156;SDS011;67400;49.360;8.266;2023-02-22T07:56:35;16.60;;;9.85;;
78156;SDS011;67400;49.360;8.266;2023-02-22T07:57:59;17.75;;;8.40;;
78156;SDS011;67400;49.360;8.266;2023-02-22T07:59:19;13.40;;;7.47;;
78156;SDS011;67400;49.360;8.266;2023-02-22T08:00:40;13.85;;;8.18;;
78156;SDS011;67400;49.360;8.266;2023-02-22T08:02:01;14.10;;;7.95;;
78156;SDS011;67400;49.360;8.266;2023-02-22T08:03:22;15.13;;;7.25;;
78156;SDS011;67400;49.360;8.266;2023-02-22T08:04:42;13.40;;;7.40;;
78156;SDS011;67400;49.360;8.266;2023-02-22T08:06:02;14.13;;;7.35;;
78156;SDS011;67400;49.360;8.266;2023-02-22T08:07:21;14.65;;;7.55;;
78156;SDS011;67400;49.360;8.266;2023-02-22T08:08:41;16.42;;;7.70;;
78156;SDS011;67400;49.360;8.266;2023-02-22T08:10:01;14.88;;;7.78;;
78156;SDS011;67400;49.360;8.266;2023-02-22T08:11:24;13.30;;;7.45;;
78156;SDS011;67400;49.360;8.266;2023-02-22T08:12:43;11.05;;;6.13;;
78156;SDS011;67400;49.360;8.266;2023-02-22T08:14:03;10.27;;;6.75;;
78156;SDS011;67400;49.360;8.266;2023-02-22T08:15:23;10.13;;;6.45;;
78156;SDS011;67400;49.360;8.266;2023-02-22T08:16:43;11.02;;;6.80;;
78156;SDS011;67400;49.360;8.266;2023-02-22T08:18:07;17.17;;;6.90;;
78156;SDS011;67400;49.360;8.266;2023-02-22T08:19:27;13.25;;;6.85;;
78156;SDS011;67400;49.360;8.266;2023-02-22T08:20:47;14.18;;;7.75;;
78156;SDS011;67400;49.360;8.266;2023-02-22T08:22:07;14.25;;;6.57;;
78156;SDS011;67400;49.360;8.266;2023-02-22T08:23:26;10.40;;;6.45;;
78156;SDS011;67400;49.360;8.266;2023-02-22T08:24:46;14.18;;;6.72;;
78156;SDS011;67400;49.360;8.266;2023-02-22T08:26:07;10.75;;;6.75;;
78156;SDS011;67400;49.360;8.266;2023-02-22T08:27:27;12.32;;;6.75;;
78156;SDS011;67400;49.360;8.266;2023-02-22T08:28:47;10.20;;;6.88;;
78156;SDS011;67400;49.360;8.266;2023-02-22T08:30:09;10.48;;;6.57;;
78156;SDS011;67400;49.360;8.266;2023-02-22T08:31:30;12.05;;;6.43;;
78156;SDS011;67400;49.360;8.266;2023-02-22T08:32:49;10.43;;;6.43;;